^^

New Milford Station Historical Data

 
Daily Summary for January 28, 2020 Units:  English    Metric   Both
Daily Weekly Monthly Yearly Custom
  Current: High: Low: Average:
Temperature: 36.9 °F 37.9 °F 34 °F 35.9 °F
Dew Point: 28.7 °F 34.1 °F 28.4 °F 31.3 °F
Humidity: 72% 93% 71% 83%
Wind Speed: 5mph 5mph 0mph 1mph
Wind Gust: 12mph 12mph - -
WindEast - - ESE
Pressure: 29.74 in 29.76 in 29.65 in -
Precipitation: 0 in      
Historical Graphs
 
 
Tabular Data for January 28, 2020
Time Temperature Dew Point Pressure Wind Wind Speed Wind Gust Humidity Rainfall Rate (Hourly) solar
00:00 35.9 °F 34.1 °F 29.66 in Calm     93% 0 in WeatherDisplay:10.37 W/m2
00:05 35.8 °F 34 °F 29.65 in Calm     93% 0 in WeatherDisplay:10.37 W/m2
00:10 35.8 °F 34 °F 29.66 in Calm     93% 0 in WeatherDisplay:10.37 W/m2
00:15 35.7 °F 33.6 °F 29.66 in Calm     92% 0 in WeatherDisplay:10.37 W/m2
00:20 35.7 °F 33.6 °F 29.66 in Calm     92% 0 in WeatherDisplay:10.37 W/m2
00:25 35.6 °F 33.5 °F 29.65 in Calm   1 mph 92% 0 in WeatherDisplay:10.37 W/m2
00:30 35.6 °F 33.8 °F 29.65 in South 1 mph 2 mph 93% 0 in WeatherDisplay:10.37 W/m2
00:35 35.6 °F 33.5 °F 29.66 in Calm   2 mph 92% 0 in WeatherDisplay:10.37 W/m2
00:40 35.6 °F 33.8 °F 29.65 in Calm     93% 0 in WeatherDisplay:10.37 W/m2
00:45 35.6 °F 33.5 °F 29.66 in Calm     92% 0 in WeatherDisplay:10.37 W/m2
00:50 35.6 °F 33.5 °F 29.66 in Calm     92% 0 in WeatherDisplay:10.37 W/m2
00:55 35.8 °F 32.8 °F 29.66 in SE 1 mph 4 mph 89% 0 in WeatherDisplay:10.37 W/m2
01:00 35.8 °F 32.6 °F 29.65 in SSE 1 mph 3 mph 88% 0 in WeatherDisplay:10.37 W/m2
01:05 36 °F 33.3 °F 29.65 in Calm   1 mph 90% 0 in WeatherDisplay:10.37 W/m2
01:10 35.8 °F 32.9 °F 29.65 in NNE 1 mph 2 mph 89% 0 in WeatherDisplay:10.37 W/m2
01:15 35.8 °F 33.2 °F 29.65 in Calm   1 mph 90% 0 in WeatherDisplay:10.37 W/m2
01:20 35.8 °F 33.1 °F 29.66 in Calm   1 mph 90% 0 in WeatherDisplay:10.37 W/m2
01:25 35.7 °F 33.1 °F 29.66 in Calm     90% 0 in WeatherDisplay:10.37 W/m2
01:30 35.7 °F 33.3 °F 29.66 in Calm     91% 0 in WeatherDisplay:10.37 W/m2
01:35 35.5 °F 32.9 °F 29.66 in Calm     90% 0 in WeatherDisplay:10.37 W/m2
01:40 35.5 °F 33.1 °F 29.66 in Calm   2 mph 91% 0 in WeatherDisplay:10.37 W/m2
01:45 35.4 °F 32.8 °F 29.66 in Calm     90% 0 in WeatherDisplay:10.37 W/m2
01:50 35.5 °F 32.6 °F 29.66 in Calm     89% 0 in WeatherDisplay:10.37 W/m2
01:55 35.5 °F 32.6 °F 29.66 in NW 1 mph 4 mph 89% 0 in WeatherDisplay:10.37 W/m2
02:00 36.1 °F 30.2 °F 29.66 in East 1 mph 6 mph 79% 0 in WeatherDisplay:10.37 W/m2
02:05 36.2 °F 32.1 °F 29.67 in Calm   3 mph 85% 0 in WeatherDisplay:10.37 W/m2
02:10 36.3 °F 30.1 °F 29.67 in SE 1 mph 5 mph 78% 0 in WeatherDisplay:10.37 W/m2
02:15 36.4 °F 31.1 °F 29.67 in SE 2 mph 4 mph 81% 0 in WeatherDisplay:10.37 W/m2
02:20 36.4 °F 30.2 °F 29.67 in WSW 1 mph 6 mph 78% 0 in WeatherDisplay:10.37 W/m2
02:25 36.3 °F 31.3 °F 29.67 in Calm   3 mph 82% 0 in WeatherDisplay:10.37 W/m2
02:30 36 °F 32 °F 29.67 in Calm   2 mph 85% 0 in WeatherDisplay:10.37 W/m2
02:35 35.8 °F 31.8 °F 29.67 in NNW 2 mph 3 mph 85% 0 in WeatherDisplay:10.37 W/m2
02:40 35.8 °F 32 °F 29.67 in West 1 mph 2 mph 86% 0 in WeatherDisplay:10.37 W/m2
02:45 35.7 °F 32.5 °F 29.67 in Calm   2 mph 88% 0 in WeatherDisplay:10.37 W/m2
02:50 35.5 °F 32 °F 29.67 in Calm   2 mph 87% 0 in WeatherDisplay:10.37 W/m2
02:55 35.4 °F 31.6 °F 29.67 in SW 1 mph 2 mph 86% 0 in WeatherDisplay:10.37 W/m2
03:00 35.4 °F 32.2 °F 29.67 in Calm   1 mph 88% 0 in WeatherDisplay:10.37 W/m2
03:05 35.3 °F 32.1 °F 29.67 in Calm     88% 0 in WeatherDisplay:10.37 W/m2
03:10 35.2 °F 32.3 °F 29.67 in Calm   2 mph 89% 0 in WeatherDisplay:10.37 W/m2
03:15 35.1 °F 31.9 °F 29.67 in Calm     88% 0 in WeatherDisplay:10.37 W/m2
03:20 35 °F 31.8 °F 29.67 in Calm     88% 0 in WeatherDisplay:10.37 W/m2
03:25 35 °F 32.1 °F 29.67 in Calm     89% 0 in WeatherDisplay:10.37 W/m2
03:30 34.9 °F 32 °F 29.67 in Calm     89% 0 in WeatherDisplay:10.37 W/m2
03:35 34.8 °F 31.9 °F 29.67 in Calm     89% 0 in WeatherDisplay:10.37 W/m2
03:40 34.8 °F 31.9 °F 29.67 in Calm     89% 0 in WeatherDisplay:10.37 W/m2
03:45 34.6 °F 31.1 °F 29.67 in Calm     87% 0 in WeatherDisplay:10.37 W/m2
03:50 34.6 °F 31.2 °F 29.67 in Calm   2 mph 87% 0 in WeatherDisplay:10.37 W/m2
03:55 34.7 °F 31.2 °F 29.67 in Calm   1 mph 87% 0 in WeatherDisplay:10.37 W/m2
04:00 34.6 °F 31.4 °F 29.67 in Calm     88% 0 in WeatherDisplay:10.37 W/m2
04:05 34.6 °F 31.4 °F 29.68 in Calm     88% 0 in WeatherDisplay:10.37 W/m2
04:10 34.5 °F 31.3 °F 29.68 in Calm   2 mph 88% 0 in WeatherDisplay:10.37 W/m2
04:15 34.5 °F 31.3 °F 29.68 in Calm   2 mph 88% 0 in WeatherDisplay:10.37 W/m2
04:20 34.3 °F 30.3 °F 29.68 in Calm     85% 0 in WeatherDisplay:10.37 W/m2
04:25 34.3 °F 30.6 °F 29.68 in Calm     86% 0 in WeatherDisplay:10.37 W/m2
04:30 34.4 °F 31 °F 29.68 in Calm     87% 0 in WeatherDisplay:10.37 W/m2
04:35 34.4 °F 31 °F 29.68 in Calm     87% 0 in WeatherDisplay:10.37 W/m2
04:40 34.4 °F 31 °F 29.68 in Calm     87% 0 in WeatherDisplay:10.37 W/m2
04:45 34.5 °F 31.3 °F 29.68 in Calm     88% 0 in WeatherDisplay:10.37 W/m2
04:50 34.5 °F 31.3 °F 29.68 in Calm     88% 0 in WeatherDisplay:10.37 W/m2
04:55 34.4 °F 30.9 °F 29.68 in Calm     87% 0 in WeatherDisplay:10.37 W/m2
05:00 34.4 °F 31 °F 29.68 in Calm   1 mph 87% 0 in WeatherDisplay:10.37 W/m2
05:05 34.5 °F 31 °F 29.68 in Calm   4 mph 87% 0 in WeatherDisplay:10.37 W/m2
05:10 34.6 °F 31.1 °F 29.68 in Calm     87% 0 in WeatherDisplay:10.37 W/m2
05:15 34.7 °F 31.2 °F 29.69 in Calm   1 mph 87% 0 in WeatherDisplay:10.37 W/m2
05:20 34.7 °F 31.2 °F 29.68 in Calm     87% 0 in WeatherDisplay:10.37 W/m2
05:25 34.7 °F 31.2 °F 29.68 in WSW 1 mph 2 mph 87% 0 in WeatherDisplay:10.37 W/m2
05:30 34.6 °F 30.8 °F 29.68 in Calm   2 mph 86% 0 in WeatherDisplay:10.37 W/m2
05:35 34.6 °F 31.1 °F 29.68 in SW 1 mph 1 mph 87% 0 in WeatherDisplay:10.37 W/m2
05:40 34.6 °F 31.2 °F 29.68 in Calm   1 mph 87% 0 in WeatherDisplay:10.37 W/m2
05:45 34.5 °F 31 °F 29.68 in SW 1 mph 2 mph 87% 0 in WeatherDisplay:10.37 W/m2
05:50 34.4 °F 30.6 °F 29.69 in Calm   1 mph 86% 0 in WeatherDisplay:10.37 W/m2
05:55 34.2 °F 30.7 °F 29.69 in Calm     87% 0 in WeatherDisplay:10.37 W/m2
06:00 34.1 °F 30.9 °F 29.69 in Calm     88% 0 in WeatherDisplay:10.37 W/m2
06:05 34 °F 30.8 °F 29.69 in Calm     88% 0 in WeatherDisplay:10.37 W/m2
06:10 34 °F 30.8 °F 29.69 in Calm   1 mph 88% 0 in WeatherDisplay:10.37 W/m2
06:15 34 °F 30.8 °F 29.69 in Calm     88% 0 in WeatherDisplay:10.37 W/m2
06:20 34.2 °F 31 °F 29.70 in Calm     88% 0 in WeatherDisplay:10.37 W/m2
06:25 34.2 °F 31.3 °F 29.70 in Calm     89% 0 in WeatherDisplay:10.37 W/m2
06:30 34.3 °F 31.4 °F 29.70 in Calm     89% 0 in WeatherDisplay:10.37 W/m2
06:35 34.3 °F 31.4 °F 29.70 in Calm     89% 0 in WeatherDisplay:10.37 W/m2
06:40 34.3 °F 31.4 °F 29.70 in Calm     89% 0 in WeatherDisplay:10.37 W/m2
06:45 34.3 °F 31.1 °F 29.70 in Calm   1 mph 88% 0 in WeatherDisplay:10.37 W/m2
06:50 34.3 °F 31.1 °F 29.70 in Calm   1 mph 88% 0 in WeatherDisplay:10.37 W/m2
06:55 34.4 °F 30.9 °F 29.71 in East 1 mph 6 mph 87% 0 in WeatherDisplay:10.37 W/m2
07:00 34.7 °F 31.5 °F 29.71 in Calm   2 mph 88% 0 in WeatherDisplay:10.37 W/m2
07:05 34.9 °F 31.4 °F 29.71 in Calm   3 mph 87% 0 in WeatherDisplay:10.37 W/m2
07:10 35 °F 31.6 °F 29.71 in Calm     87% 0 in WeatherDisplay:10.37 W/m2
07:15 35 °F 31.8 °F 29.71 in SE 1 mph 1 mph 88% 0 in WeatherDisplay:10.37 W/m2
07:20 35 °F 31.2 °F 29.71 in Calm   1 mph 86% 0 in WeatherDisplay:10.37 W/m2
07:25 35.1 °F 31.9 °F 29.72 in Calm     88% 0 in WeatherDisplay:10.37 W/m2
07:30 35.2 °F 32 °F 29.72 in Calm   3 mph 88% 0 in WeatherDisplay:10.37 W/m2
07:35 35.2 °F 32 °F 29.72 in Calm   2 mph 88% 0 in WeatherDisplay:10.37 W/m2
07:40 35.2 °F 32.3 °F 29.72 in Calm     89% 0 in WeatherDisplay:10.37 W/m2
07:45 35.2 °F 31.4 °F 29.72 in NE 1 mph 4 mph 86% 0 in WeatherDisplay:10.37 W/m2
07:50 35.4 °F 31.9 °F 29.72 in Calm   2 mph 87% 0 in WeatherDisplay:10.37 W/m2
07:55 35.5 °F 32.3 °F 29.72 in Calm     88% 0 in WeatherDisplay:10.37 W/m2
08:00 35.5 °F 32.3 °F 29.72 in Calm   1 mph 88% 0 in WeatherDisplay:10.37 W/m2
08:05 35.5 °F 31.5 °F 29.73 in West 1 mph 2 mph 85% 0 in WeatherDisplay:10.37 W/m2
08:10 35.6 °F 31.6 °F 29.73 in NNE 1 mph 5 mph 85% 0 in WeatherDisplay:10.37 W/m2
08:15 35.7 °F 31.6 °F 29.73 in ENE 1 mph 4 mph 85% 0 in WeatherDisplay:10.37 W/m2
08:20 35.6 °F 31.3 °F 29.73 in East 3 mph 5 mph 84% 0 in WeatherDisplay:10.37 W/m2
08:25 35.9 °F 31.8 °F 29.73 in Calm   6 mph 85% 0 in WeatherDisplay:10.37 W/m2
08:30 35.9 °F 31.5 °F 29.73 in ENE 2 mph 6 mph 84% 0 in WeatherDisplay:10.37 W/m2
08:35 35.9 °F 31.5 °F 29.73 in ENE 1 mph 3 mph 84% 0 in WeatherDisplay:10.37 W/m2
08:40 36 °F 31.6 °F 29.73 in Calm   2 mph 84% 0 in WeatherDisplay:10.37 W/m2
08:45 36.1 °F 31.8 °F 29.73 in Calm     84% 0 in WeatherDisplay:10.37 W/m2
08:50 36 °F 31.6 °F 29.73 in ENE 2 mph 6 mph 84% 0 in WeatherDisplay:10.37 W/m2
08:55 36.1 °F 31.5 °F 29.74 in East 1 mph 3 mph 83% 0 in WeatherDisplay:10.37 W/m2
09:00 36.1 °F 31.5 °F 29.74 in East 1 mph 4 mph 83% 0 in WeatherDisplay:10.37 W/m2
09:05 36.2 °F 31.9 °F 29.74 in Calm   4 mph 84% 0 in WeatherDisplay:10.37 W/m2
09:10 36.4 °F 32 °F 29.74 in Calm   3 mph 84% 0 in WeatherDisplay:10.37 W/m2
09:15 36.4 °F 31.4 °F 29.74 in North 1 mph 2 mph 82% 0 in WeatherDisplay:10.37 W/m2
09:20 36.4 °F 31.7 °F 29.74 in Calm   3 mph 83% 0 in WeatherDisplay:10.37 W/m2
09:25 36.4 °F 31.5 °F 29.75 in NNE 2 mph 3 mph 82% 0 in WeatherDisplay:10.37 W/m2
09:30 36.5 °F 31.5 °F 29.75 in NE 2 mph 3 mph 82% 0 in WeatherDisplay:10.37 W/m2
09:35 36.5 °F 31.9 °F 29.75 in ENE 1 mph 3 mph 83% 0 in WeatherDisplay:10.37 W/m2
09:40 36.7 °F 32.1 °F 29.75 in ENE 1 mph 2 mph 83% 0 in WeatherDisplay:10.37 W/m2
09:45 36.8 °F 32.1 °F 29.75 in Calm   2 mph 83% 0 in WeatherDisplay:10.37 W/m2
09:50 36.6 °F 31.3 °F 29.75 in Calm   3 mph 81% 0 in WeatherDisplay:10.37 W/m2
09:55 36.6 °F 31.1 °F 29.75 in Calm   3 mph 80% 0 in WeatherDisplay:10.37 W/m2
10:00 36.8 °F 31.8 °F 29.75 in East 2 mph 3 mph 82% 0 in WeatherDisplay:10.37 W/m2
10:05 36.7 °F 31.4 °F 29.75 in East 3 mph 4 mph 81% 0 in WeatherDisplay:10.37 W/m2
10:10 36.8 °F 31.2 °F 29.76 in SSE 2 mph 6 mph 80% 0 in WeatherDisplay:10.37 W/m2
10:15 36.8 °F 30.6 °F 29.76 in SSW 5 mph 6 mph 78% 0 in WeatherDisplay:10.37 W/m2
10:20 37.2 °F 31.3 °F 29.76 in Calm   5 mph 79% 0 in WeatherDisplay:10.37 W/m2
10:25 37.4 °F 31.8 °F 29.76 in South 1 mph 6 mph 80% 0 in WeatherDisplay:10.37 W/m2
10:30 37.6 °F 32 °F 29.76 in Calm   2 mph 80% 0 in WeatherDisplay:10.37 W/m2
10:35 37.3 °F 31 °F 29.76 in SE 2 mph 4 mph 78% 0 in WeatherDisplay:10.37 W/m2
10:40 37.2 °F 30 °F 29.76 in SE 2 mph 6 mph 75% 0 in WeatherDisplay:10.37 W/m2
10:45 37.4 °F 31.1 °F 29.76 in SE 1 mph 7 mph 78% 0 in WeatherDisplay:10.37 W/m2
10:50 37.5 °F 29.9 °F 29.76 in ESE 2 mph 7 mph 74% 0 in WeatherDisplay:10.37 W/m2
10:55 37.9 °F 31 °F 29.76 in ESE 1 mph 5 mph 76% 0 in WeatherDisplay:10.37 W/m2
11:00 37.9 °F 31 °F 29.76 in ESE 1 mph 3 mph 76% 0 in WeatherDisplay:10.37 W/m2
11:05 37.7 °F 30.8 °F 29.75 in ESE 1 mph 3 mph 76% 0 in WeatherDisplay:10.37 W/m2
11:10 37.9 °F 31 °F 29.75 in ESE 1 mph 5 mph 76% 0 in WeatherDisplay:10.37 W/m2
11:15 37.7 °F 30.2 °F 29.75 in ESE 3 mph 7 mph 74% 0 in WeatherDisplay:10.37 W/m2
11:20 37.5 °F 29.9 °F 29.75 in East 2 mph 5 mph 74% 0 in WeatherDisplay:10.37 W/m2
11:25 37.6 °F 30.4 °F 29.75 in East 1 mph 4 mph 75% 0 in WeatherDisplay:10.37 W/m2
11:30 37.6 °F 30.1 °F 29.75 in ESE 2 mph 4 mph 74% 0 in WeatherDisplay:10.37 W/m2
11:35 37.6 °F 30 °F 29.75 in ESE 3 mph 7 mph 74% 0 in WeatherDisplay:10.37 W/m2
11:40 37.4 °F 29.6 °F 29.75 in ESE 3 mph 6 mph 73% 0 in WeatherDisplay:10.37 W/m2
11:45 37.9 °F 30.7 °F 29.75 in ESE 3 mph 8 mph 75% 0 in WeatherDisplay:10.37 W/m2
11:50 37.7 °F 29.8 °F 29.75 in ENE 5 mph 8 mph 73% 0 in WeatherDisplay:10.37 W/m2
11:55 37.9 °F 30.4 °F 29.75 in NE 2 mph 8 mph 74% 0 in WeatherDisplay:10.37 W/m2
12:00 37.5 °F 30 °F 29.75 in East 2 mph 8 mph 74% 0 in WeatherDisplay:10.37 W/m2
12:05 37.4 °F 29.6 °F 29.75 in East 3 mph 5 mph 73% 0 in WeatherDisplay:10.37 W/m2
12:10 37.4 °F 29.9 °F 29.75 in ESE 2 mph 5 mph 74% 0 in WeatherDisplay:10.37 W/m2
12:15 37.4 °F 29.5 °F 29.75 in ESE 1 mph 6 mph 73% 0 in WeatherDisplay:10.37 W/m2
12:20 37.4 °F 29.9 °F 29.75 in ENE 3 mph 5 mph 74% 0 in WeatherDisplay:10.37 W/m2
12:25 37.6 °F 30.4 °F 29.74 in ENE 3 mph 6 mph 75% 0 in WeatherDisplay:10.37 W/m2
12:30 37.7 °F 30.1 °F 29.74 in NE 2 mph 4 mph 74% 0 in WeatherDisplay:10.37 W/m2
12:35 37.6 °F 30.1 °F 29.74 in ENE 3 mph 4 mph 74% 0 in WeatherDisplay:10.37 W/m2
12:40 37.5 °F 29.3 °F 29.74 in East 2 mph 8 mph 72% 0 in WeatherDisplay:10.37 W/m2
12:45 37.6 °F 30.1 °F 29.74 in ESE 2 mph 8 mph 74% 0 in WeatherDisplay:10.37 W/m2
12:50 37.4 °F 29.6 °F 29.74 in ESE 3 mph 6 mph 73% 0 in WeatherDisplay:10.37 W/m2
12:55 37.2 °F 29 °F 29.74 in East 5 mph 9 mph 72% 0 in WeatherDisplay:10.37 W/m2
13:00 37.1 °F 29.9 °F 29.74 in East 5 mph 7 mph 75% 0 in WeatherDisplay:10.37 W/m2
13:05 37.2 °F 29.4 °F 29.74 in East 3 mph 7 mph 73% 0 in WeatherDisplay:10.37 W/m2
13:10 37.3 °F 29.4 °F 29.74 in East 2 mph 6 mph 73% 0 in WeatherDisplay:10.37 W/m2
13:15 37.4 °F 29.9 °F 29.74 in South 2 mph 3 mph 74% 0 in WeatherDisplay:10.37 W/m2
13:20 37 °F 28.8 °F 29.74 in South 5 mph 7 mph 72% 0 in WeatherDisplay:10.37 W/m2
13:25 37.1 °F 28.5 °F 29.74 in SE 5 mph 10 mph 71% 0 in WeatherDisplay:10.37 W/m2
13:30 36.9 °F 28.7 °F 29.74 in ESE 5 mph 10 mph 72% 0 in WeatherDisplay:10.37 W/m2
13:35 36.6 °F 28.4 °F 29.74 in ESE 3 mph 9 mph 72% 0 in WeatherDisplay:10.37 W/m2
13:40 37.1 °F 28.9 °F 29.73 in ESE 1 mph 6 mph 72% 0 in WeatherDisplay:10.37 W/m2
13:45 37.2 °F 29 °F 29.73 in SE 1 mph 6 mph 72% 0 in WeatherDisplay:10.37 W/m2
13:50 37.1 °F 28.6 °F 29.74 in ENE 2 mph 8 mph 71% 0 in WeatherDisplay:10.37 W/m2
13:55 37 °F 28.5 °F 29.74 in East 3 mph 10 mph 71% 0 in WeatherDisplay:10.37 W/m2
14:00 36.9 °F 28.7 °F 29.74 in East 5 mph 12 mph 72% 0 in WeatherDisplay:10.37 W/m2
Compliments of Weather Underground - 1.75 mb